METAR Data
IDs: Format: Raw Decoded Include TAF

Data at: 1700 UTC 19 Sep 2018

KTBR 191655Z AUTO 05005KT 10SM CLR 32/18 A2999 RMK AO2 T03180184
KTBR 191635Z AUTO 02006KT 10SM CLR 32/18 A3000 RMK AO2 T03190180
KTBR 191615Z AUTO 04003KT 10SM CLR 32/19 A3000 RMK AO2 T03150189
KTBR 191555Z AUTO 36006KT 10SM CLR 31/19 A3000 RMK AO2 T03140194
KTBR 191535Z AUTO 02007KT 10SM CLR 31/19 A3000 RMK AO2 T03050191
KTBR 191515Z AUTO 04005KT 10SM CLR 30/19 A3000 RMK AO2 T02990194
KTBR 191455Z AUTO 02008KT 10SM CLR 30/20 A3000 RMK AO2 T02990197
KTBR 191435Z AUTO 05005KT 10SM CLR 29/20 A2999 RMK AO2 T02910201
KTBR 191415Z AUTO 03006KT 10SM CLR 29/20 A2999 RMK AO2 T02850200
KTBR 191355Z AUTO 00000KT 10SM CLR 28/21 A2998 RMK AO2 T02800210
KTBR 191335Z AUTO 02004KT 10SM CLR 27/22 A2998 RMK AO2 T02690219
KTBR 191315Z AUTO 01006KT 10SM CLR 26/22 A2998 RMK AO2 T02600221
KTBR 191255Z AUTO 01004KT 10SM CLR 26/23 A2997 RMK AO2 T02550225
KTBR 191235Z AUTO 02003KT 10SM CLR 24/22 A2996 RMK AO2 T02440221
KTBR 191215Z AUTO 00000KT 10SM CLR 23/22 A2996 RMK AO2 T02340221
KTBR 191155Z AUTO 33003KT 10SM CLR 23/22 A2995 RMK AO2 T02270218 10232 20210
KTBR 191135Z AUTO 00000KT 10SM CLR 22/22 A2995 RMK AO2 T02220216
KTBR 191115Z AUTO 00000KT 10SM CLR 22/22 A2994 RMK AO2 T02190215
KTBR 191055Z AUTO 00000KT 10SM CLR 21/21 A2993 RMK AO2 T02130208
KTBR 191035Z AUTO 00000KT 10SM CLR 22/21 A2992 RMK AO2 T02150210
KTBR 191015Z AUTO 00000KT 10SM CLR 22/21 A2992 RMK AO2 T02160213
KTBR 190955Z AUTO 00000KT 1 1/4SM BR SCT060 21/21 A2992 RMK AO2 VIS 1/2V4 T02130211
KTBR 190935Z AUTO 00000KT 3SM BR SCT060 22/21 A2992 RMK AO2 T02170213
KTBR 190915Z AUTO 00000KT 10SM CLR 22/22 A2991 RMK AO2 T02200215
KTBR 190855Z AUTO 00000KT 10SM CLR 22/21 A2991 RMK AO2 T02170212
KTBR 190835Z AUTO 00000KT 10SM CLR 22/22 A2990 RMK AO2 T02220216
KTBR 190815Z AUTO 00000KT 10SM CLR 23/22 A2990 RMK AO2 T02250220
KTBR 190755Z AUTO 00000KT 10SM CLR 22/22 A2990 RMK AO2 T02200217
KTBR 190735Z AUTO 00000KT 10SM CLR 22/21 A2989 RMK AO2 T02160212
KTBR 190715Z AUTO 00000KT 10SM CLR 22/22 A2990 RMK AO2 T02240217
KTBR 190700Z AUTO 00000KT 10SM CLR 22/22 A2991 RMK AO2 T02220218
KTBR 190635Z AUTO 00000KT 10SM CLR 23/22 A2991 RMK AO2 T02260219
KTBR 190615Z AUTO 00000KT 10SM CLR 23/22 A2991 RMK AO2 T02260220
KTBR 190555Z AUTO 00000KT 10SM CLR 23/22 A2992 RMK AO2 T02320223 10285 20226 403460217
KTBR 190535Z AUTO 00000KT 10SM CLR 23/23 A2992 RMK AO2 T02320225
KTBR 190515Z AUTO 00000KT 10SM CLR 23/22 A2992 RMK AO2 T02260220
KTBR 190455Z AUTO 00000KT 10SM CLR 24/23 A2992 RMK AO2 T02350225
KTBR 190435Z AUTO 00000KT 10SM CLR 24/23 A2992 RMK AO2 T02370226
KTBR 190415Z AUTO 00000KT 10SM CLR 24/23 A2992 RMK AO2 T02400225
KTBR 190355Z AUTO 00000KT 10SM CLR 24/23 A2992 RMK AO2 T02400225
KTBR 190335Z AUTO 00000KT 10SM CLR 24/23 A2992 RMK AO2 T02410226
KTBR 190315Z AUTO 00000KT 10SM CLR 24/23 A2992 RMK AO2 LTG DSNT SE T02440226
KTBR 190255Z AUTO 00000KT 10SM CLR 25/23 A2992 RMK AO2 T02480230
KTBR 190235Z AUTO 00000KT 10SM CLR 25/23 A2992 RMK AO2 LTG DSNT SE AND S T02510227
KTBR 190215Z AUTO 00000KT 10SM CLR 25/23 A2991 RMK AO2 T02520229
KTBR 190155Z AUTO 00000KT 10SM SCT060 SCT080 SCT090 25/23 A2991 RMK AO2 T02510231
KTBR 190135Z AUTO 00000KT 10SM SCT060 SCT070 SCT085 26/23 A2990 RMK AO2 LTG DSNT SE T02600228
KTBR 190115Z AUTO 00000KT 10SM SCT075 SCT090 27/23 A2990 RMK AO2 T02700229
KTBR 190055Z AUTO 00000KT 10SM SCT075 BKN090 27/23 A2990 RMK AO2 T02680229
KTBR 190035Z AUTO 00000KT 10SM BKN075 27/23 A2988 RMK AO2 T02730230
KTBR 190015Z AUTO 00000KT 10SM SCT075 28/23 A2987 RMK AO2 T02810230
KTBR 182355Z AUTO 00000KT 10SM SCT075 28/23 A2987 RMK AO2 T02840230 10346 20282
KTBR 182335Z AUTO 00000KT 10SM SCT075 29/23 A2986 RMK AO2 T02880231
KTBR 182315Z AUTO 00000KT 10SM CLR 31/23 A2986 RMK AO2 T03080228
KTBR 182255Z AUTO 00000KT 10SM CLR 32/22 A2986 RMK AO2 T03240215
KTBR 182235Z AUTO 26003KT 10SM SCT065 33/20 A2986 RMK AO2 T03320201
KTBR 182215Z AUTO 27004KT 10SM CLR 34/20 A2986 RMK AO2 T03360196
KTBR 182155Z AUTO 28005KT 10SM CLR 34/20 A2986 RMK AO2 T03400197
KTBR 182135Z AUTO 26005KT 10SM CLR 34/20 A2986 RMK AO2 T03390204
KTBR 182115Z AUTO 29005KT 10SM CLR 34/20 A2985 RMK AO2 LTG DSNT S T03420202
KTBR 182055Z AUTO 29003KT 10SM CLR 34/20 A2985 RMK AO2 T03420201
KTBR 182035Z AUTO 32005KT 10SM SCT060 33/20 A2986 RMK AO2 T03300197
KTBR 182010Z AUTO 28003KT 10SM SCT060 34/20 A2986 RMK AO2 T03400204
KTBR 181955Z AUTO 26006KT 10SM SCT060 35/21 A2987 RMK AO2 T03450210
KTBR 181935Z AUTO 27005KT 10SM SCT050 34/21 A2987 RMK AO2 T03420209
KTBR 181915Z AUTO 28009KT 10SM SCT050 SCT065 34/21 A2988 RMK AO2 T03410210
KTBR 181855Z AUTO 26005KT 10SM SCT050 BKN055 34/21 A2989 RMK AO2 T03390211
KTBR 181835Z AUTO 15003KT 10SM SCT050 SCT055 34/22 A2990 RMK AO2 T03350217
KTBR 181815Z AUTO 29004KT 10SM CLR 33/22 A2992 RMK AO2 T03260215
KTBR 181755Z AUTO 25003KT 10SM CLR 33/21 A2993 RMK AO2 T03280214 10328 20225
KTBR 181740Z AUTO 14003KT 10SM CLR 32/22 A2993 RMK AO2 T03240215
KTBR 181715Z AUTO 00000KT 10SM CLR 32/22 A2994 RMK AO2 T03180217
KTBR 181655Z AUTO 29005KT 10SM CLR 32/22 A2995 RMK AO2 T03150220
KTBR 181635Z AUTO 21003KT 10SM CLR 31/22 A2995 RMK AO2 T03110217
KTBR 181615Z AUTO 23003KT 10SM CLR 31/22 A2996 RMK AO2 T03080220
KTBR 181600Z AUTO 00000KT 10SM CLR 31/22 A2996 RMK AO2 T03050222
KTBR 181535Z AUTO 24005KT 10SM CLR 29/22 A2997 RMK AO2 T02940221
KTBR 181515Z AUTO 27004KT 7SM CLR 30/22 A2997 RMK AO2 T02960219
KTBR 181455Z AUTO 23004KT 10SM CLR 29/22 A2997 RMK AO2 T02910221
KTBR 181435Z AUTO 29004KT 10SM CLR 29/22 A2997 RMK AO2 T02870218
KTBR 181415Z AUTO 00000KT 10SM CLR 29/22 A2997 RMK AO2 T02860221
KTBR 181355Z AUTO 00000KT 10SM CLR 28/22 A2997 RMK AO2 T02800220
KTBR 181335Z AUTO 00000KT 10SM CLR 26/22 A2997 RMK AO2 T02600215
KTBR 181315Z AUTO 00000KT 10SM CLR 25/22 A2997 RMK AO2 LTG DSNT SE T02460215
KTBR 181255Z AUTO 00000KT 10SM CLR 24/22 A2997 RMK AO2 T02430215
KTBR 181235Z AUTO 00000KT 10SM CLR 24/21 A2997 RMK AO2 T02420214
KTBR 181215Z AUTO 00000KT 10SM CLR 24/21 A2997 RMK AO2 T02360213
KTBR 181155Z AUTO 00000KT 10SM CLR 22/22 A2996 RMK AO2 T02240215 10250 20217
KTBR 181135Z AUTO 00000KT 10SM CLR 22/21 A2995 RMK AO2 T02230210
KTBR 181115Z AUTO 00000KT 10SM CLR 23/21 A2994 RMK AO2 T02260208
KTBR 181055Z AUTO 00000KT 10SM CLR 23/21 A2994 RMK AO2 T02260210
KTBR 181035Z AUTO 00000KT 10SM CLR 23/21 A2995 RMK AO2 LTG DSNT E AND SE T02280210
KTBR 181015Z AUTO 00000KT 10SM CLR 24/21 A2995 RMK AO2 T02350209
KTBR 180955Z AUTO 00000KT 10SM CLR 24/21 A2995 RMK AO2 T02370212
KTBR 180935Z AUTO 00000KT 10SM CLR 24/21 A2995 RMK AO2 T02370213
KTBR 180915Z AUTO 00000KT 10SM CLR 24/21 A2995 RMK AO2 T02400214
KTBR 180855Z AUTO 25004KT 10SM CLR 24/21 A2996 RMK AO2 T02420214
KTBR 180835Z AUTO 27003KT 10SM SCT045 24/23 A2995 RMK AO2 LTG DSNT S AND W T02440226
KTBR 180815Z AUTO 00000KT 10SM SCT045 25/23 A2996 RMK AO2 LTG DSNT W AND NW T02450230
KTBR 180755Z AUTO 16003KT 10SM VCTS SCT048 SCT060 SCT080 25/23 A2996 RMK AO2 T02450230
KTBR 180735Z AUTO 24003KT 10SM TS SCT019 BKN040 BKN050 25/23 A2997 RMK AO2 LTG DSNT W T02480230
KTBR 180715Z AUTO 27003KT 10SM SCT019 BKN038 BKN048 25/23 A2996 RMK AO2 LTG DSNT SW THRU NW T02490231
KTBR 180655Z AUTO 00000KT 10SM SCT048 25/23 A2995 RMK AO2 LTG DSNT W THRU NE T02470230
KTBR 180635Z AUTO 00000KT 10SM SCT049 25/23 A2995 RMK AO2 T02480232
KTBR 180615Z AUTO 00000KT 10SM CLR 25/23 A2995 RMK AO2 LTG DSNT NE AND NW T02500233
KTBR 180555Z AUTO 20003KT 10SM CLR 25/23 A2995 RMK AO2 LTG DSNT NE AND NW T02500234 10283 20250 403420230
KTBR 180535Z AUTO 18003KT 10SM CLR 25/24 A2995 RMK AO2 LTG DSNT NE T02530235
KTBR 180515Z AUTO 20004KT 10SM CLR 26/24 A2996 RMK AO2 LTG DSNT NE T02550236